Iberica Hav — C6YI3 — position and weather

sailwx.info

Track history (hours):
 
Tides and Currents Weather Stations Pressure Air Temp Water Temp Dewpoint Dewpoint Depression Visibility Wind Speed Wind Dir Waves Ship Positions

Iberica Hav

Last reported at 2014-Dec-19 13:18 UTC. Time now 2014-Dec-19 15:50 UTC.
Position N 60°23' E 005°19'.

Length 88 m; draft 3.4 m.

Type: Cargo ship. MMSI: 311034400.

Date/timePositionNaut miles runAvg speedWind from/ knotsBaromVisibWave heightAir tempDewpointWater temp
2014-Dec-19 13:18N 60°23' E 005°19'55 2.5
2014-Dec-18 15:32N 59°28' E 005°13'9 9.3
2014-Dec-18 14:31N 59°19' E 005°20'1010.0
2014-Dec-18 13:33N 59°10' E 005°22'8 8.5
2014-Dec-18 12:33N 59°03' E 005°33'8 8.1
2014-Dec-18 11:33N 58°55' E 005°35'0 0.0
2014-Dec-18 10:30N 58°55' E 005°35'0 0.0
2014-Dec-18 09:33N 58°55' E 005°35'0 0.0
2014-Dec-18 08:33N 58°55' E 005°35'0 0.0
2014-Dec-18 07:12N 58°55' E 005°35'0 0.0
2014-Dec-18 06:30N 58°55' E 005°35'0 0.0
2014-Dec-18 05:33N 58°55' E 005°35'0 0.0
2014-Dec-18 04:33N 58°55' E 005°35'0 0.0
2014-Dec-18 03:33N 58°55' E 005°35'0 0.0
2014-Dec-18 02:33N 58°55' E 005°35'0 0.0
2014-Dec-18 01:33N 58°55' E 005°35'0 0.0
2014-Dec-18 00:33N 58°55' E 005°35'0 0.0
2014-Dec-17 23:33N 58°55' E 005°35'0 0.0
2014-Dec-17 22:33N 58°55' E 005°35'0 0.0
2014-Dec-17 21:33N 58°55' E 005°35'0 0.0
2014-Dec-17 20:33N 58°55' E 005°35'0 0.0
2014-Dec-17 19:30N 58°55' E 005°35'0 0.0
2014-Dec-17 18:33N 58°55' E 005°35'0 0.0
2014-Dec-17 17:33N 58°55' E 005°35'0 0.0
2014-Dec-17 16:33N 58°55' E 005°35'0 0.0
2014-Dec-17 15:33N 58°55' E 005°35'0 0.0
2014-Dec-17 14:33N 58°55' E 005°35'0 0.0
2014-Dec-17 13:33N 58°55' E 005°35'0 0.0
2014-Dec-17 12:33N 58°55' E 005°35'0 0.0
2014-Dec-17 11:33N 58°55' E 005°35'0 0.0
2014-Dec-17 10:33N 58°55' E 005°35'0 0.0
2014-Dec-17 09:33N 58°55' E 005°35'0 0.0
2014-Dec-17 08:33N 58°55' E 005°35'0 0.0
2014-Dec-17 07:33N 58°55' E 005°35'0 0.0
2014-Dec-17 06:33N 58°55' E 005°35'0 0.0
2014-Dec-17 05:33N 58°55' E 005°35'0 0.0
2014-Dec-17 04:33N 58°55' E 005°35'0 0.0
2014-Dec-17 03:33N 58°55' E 005°35'0 0.0
2014-Dec-17 02:33N 58°55' E 005°35'0 0.0
2014-Dec-17 01:33N 58°55' E 005°35'0 0.0
2014-Dec-17 00:33N 58°55' E 005°35'1 1.4
2014-Dec-16 23:33N 58°55' E 005°33'8 7.9
2014-Dec-16 22:32N 58°47' E 005°27'  
2014-Dec-14 12:19N 52°09' E 002°17'32 8.3
2014-Dec-14 08:26N 51°39' E 002°02'8 9.5
2014-Dec-14 07:33N 51°31' E 001°59'9 9.3
2014-Dec-14 06:34N 51°21' E 001°59'10 9.7
2014-Dec-14 05:33N 51°14' E 001°50'1010.0
2014-Dec-14 04:33N 51°05' E 001°40'1010.1
2014-Dec-14 03:33N 50°57' E 001°32'  
Track history (hours):
 
Tides and Currents Weather Stations Pressure Air Temp Water Temp Dewpoint Dewpoint Depression Visibility Wind Speed Wind Dir Waves Ship Positions

Iberica Hav

Last reported at 2014-Dec-19 13:18 UTC. Time now 2014-Dec-19 15:50 UTC.
Position N 60°23' E 005°19'.

Length 88 m; draft 3.4 m.

Type: Cargo ship. MMSI: 311034400.

Date/timePositionNaut miles runAvg speedWind from/ knotsBaromVisibWave heightAir tempDewpointWater temp
2014-Dec-19 13:18N 60°23' E 005°19'55 2.5
2014-Dec-18 15:32N 59°28' E 005°13'9 9.3
2014-Dec-18 14:31N 59°19' E 005°20'1010.0
2014-Dec-18 13:33N 59°10' E 005°22'8 8.5
2014-Dec-18 12:33N 59°03' E 005°33'8 8.1
2014-Dec-18 11:33N 58°55' E 005°35'0 0.0
2014-Dec-18 10:30N 58°55' E 005°35'0 0.0
2014-Dec-18 09:33N 58°55' E 005°35'0 0.0
2014-Dec-18 08:33N 58°55' E 005°35'0 0.0
2014-Dec-18 07:12N 58°55' E 005°35'0 0.0
2014-Dec-18 06:30N 58°55' E 005°35'0 0.0
2014-Dec-18 05:33N 58°55' E 005°35'0 0.0
2014-Dec-18 04:33N 58°55' E 005°35'0 0.0
2014-Dec-18 03:33N 58°55' E 005°35'0 0.0
2014-Dec-18 02:33N 58°55' E 005°35'0 0.0
2014-Dec-18 01:33N 58°55' E 005°35'0 0.0
2014-Dec-18 00:33N 58°55' E 005°35'0 0.0
2014-Dec-17 23:33N 58°55' E 005°35'0 0.0
2014-Dec-17 22:33N 58°55' E 005°35'0 0.0
2014-Dec-17 21:33N 58°55' E 005°35'0 0.0
2014-Dec-17 20:33N 58°55' E 005°35'0 0.0
2014-Dec-17 19:30N 58°55' E 005°35'0 0.0
2014-Dec-17 18:33N 58°55' E 005°35'0 0.0
2014-Dec-17 17:33N 58°55' E 005°35'0 0.0
2014-Dec-17 16:33N 58°55' E 005°35'0 0.0
2014-Dec-17 15:33N 58°55' E 005°35'0 0.0
2014-Dec-17 14:33N 58°55' E 005°35'0 0.0
2014-Dec-17 13:33N 58°55' E 005°35'0 0.0
2014-Dec-17 12:33N 58°55' E 005°35'0 0.0
2014-Dec-17 11:33N 58°55' E 005°35'0 0.0
2014-Dec-17 10:33N 58°55' E 005°35'0 0.0
2014-Dec-17 09:33N 58°55' E 005°35'0 0.0
2014-Dec-17 08:33N 58°55' E 005°35'0 0.0
2014-Dec-17 07:33N 58°55' E 005°35'0 0.0
2014-Dec-17 06:33N 58°55' E 005°35'0 0.0
2014-Dec-17 05:33N 58°55' E 005°35'0 0.0
2014-Dec-17 04:33N 58°55' E 005°35'0 0.0
2014-Dec-17 03:33N 58°55' E 005°35'0 0.0
2014-Dec-17 02:33N 58°55' E 005°35'0 0.0
2014-Dec-17 01:33N 58°55' E 005°35'0 0.0
2014-Dec-17 00:33N 58°55' E 005°35'1 1.4
2014-Dec-16 23:33N 58°55' E 005°33'8 7.9
2014-Dec-16 22:32N 58°47' E 005°27'  
2014-Dec-14 12:19N 52°09' E 002°17'32 8.3
2014-Dec-14 08:26N 51°39' E 002°02'8 9.5
2014-Dec-14 07:33N 51°31' E 001°59'9 9.3
2014-Dec-14 06:34N 51°21' E 001°59'10 9.7
2014-Dec-14 05:33N 51°14' E 001°50'1010.0
2014-Dec-14 04:33N 51°05' E 001°40'1010.1
2014-Dec-14 03:33N 50°57' E 001°32'  

Dump ship's entire track history